createdAt,value
2022-11-17T00:01:14.664Z,16.13
2022-11-17T00:03:40.972Z,11.95
2022-11-17T00:06:07.444Z,12.57
2022-11-17T00:08:33.756Z,16.30
2022-11-17T00:11:00.812Z,15.82
2022-11-17T00:13:45.889Z,19.48
2022-11-17T00:16:19.471Z,11.70
2022-11-17T00:19:04.615Z,15.88
2022-11-17T00:21:31.280Z,11.05
2022-11-17T00:23:58.105Z,14.43
2022-11-17T00:26:34.405Z,11.10
2022-11-17T00:29:05.399Z,16.50
2022-11-17T00:31:51.543Z,9.85
2022-11-17T00:34:21.767Z,13.85
2022-11-17T00:36:52.638Z,15.90
2022-11-17T00:39:19.820Z,11.23
2022-11-17T00:41:46.147Z,12.25
2022-11-17T00:44:12.456Z,14.73
2022-11-17T00:46:39.242Z,16.85
2022-11-17T00:49:06.248Z,14.07
2022-11-17T00:51:33.021Z,11.52
2022-11-17T00:53:59.847Z,12.80
2022-11-17T00:56:26.651Z,12.55
2022-11-17T00:58:53.521Z,15.52
2022-11-17T01:01:20.344Z,13.43
2022-11-17T01:03:46.955Z,12.48
2022-11-17T01:06:14.691Z,13.45
2022-11-17T01:08:41.032Z,12.57
2022-11-17T01:11:15.435Z,14.57
2022-11-17T01:13:42.600Z,9.77
2022-11-17T01:16:10.714Z,14.73
2022-11-17T01:18:37.875Z,11.52
2022-11-17T01:21:09.155Z,11.52
2022-11-17T01:23:36.420Z,12.13
2022-11-17T01:26:04.144Z,10.85
2022-11-17T01:28:30.514Z,12.98
2022-11-17T01:31:00.964Z,12.93
2022-11-17T01:33:27.667Z,16.95
2022-11-17T01:35:53.956Z,9.63
2022-11-17T01:38:20.279Z,14.50
2022-11-17T01:40:46.573Z,8.63
2022-11-17T01:43:12.916Z,11.27
2022-11-17T01:45:39.192Z,14.88
2022-11-17T01:48:07.041Z,8.55
2022-11-17T01:50:38.891Z,13.00
2022-11-17T01:53:07.270Z,10.88
2022-11-17T01:55:35.567Z,14.07
2022-11-17T01:58:04.709Z,11.38
2022-11-17T02:00:31.267Z,14.52
2022-11-17T02:02:57.855Z,10.55
2022-11-17T02:05:30.250Z,8.80
2022-11-17T02:07:59.302Z,14.38
2022-11-17T02:10:26.148Z,12.82
2022-11-17T02:12:54.403Z,9.50
2022-11-17T02:15:20.742Z,12.05
2022-11-17T02:17:47.023Z,13.98
2022-11-17T02:20:14.464Z,9.23
2022-11-17T02:22:49.631Z,11.75
2022-11-17T02:25:15.911Z,9.07
2022-11-17T02:27:45.275Z,12.73
2022-11-17T02:30:16.480Z,12.52
2022-11-17T02:32:52.210Z,8.20
2022-11-17T02:35:22.122Z,11.15
2022-11-17T02:38:12.392Z,15.10
2022-11-17T02:41:01.695Z,9.98
2022-11-17T02:43:50.750Z,8.27
2022-11-17T02:46:19.365Z,15.70
2022-11-17T02:48:47.631Z,8.65
2022-11-17T02:51:16.372Z,9.52
2022-11-17T02:53:42.724Z,11.30
2022-11-17T02:56:09.051Z,14.52
2022-11-17T02:58:35.394Z,9.77
2022-11-17T03:01:13.898Z,14.27
2022-11-17T03:03:43.360Z,12.48
2022-11-17T03:06:18.836Z,10.32
2022-11-17T03:08:48.148Z,10.20
2022-11-17T03:11:14.539Z,11.00
2022-11-17T03:13:43.809Z,10.98
2022-11-17T03:16:15.783Z,13.05
2022-11-17T03:19:04.715Z,11.98
2022-11-17T03:21:49.768Z,10.48
2022-11-17T03:24:33.625Z,14.02
2022-11-17T03:27:02.559Z,9.95
2022-11-17T03:29:30.516Z,11.57
2022-11-17T03:31:58.596Z,9.68
2022-11-17T03:34:26.732Z,11.00
2022-11-17T03:36:57.025Z,12.20
2022-11-17T03:39:27.450Z,10.75
2022-11-17T03:41:57.254Z,13.57
2022-11-17T03:44:24.650Z,14.25
2022-11-17T03:46:54.079Z,9.43
2022-11-17T03:49:23.444Z,8.00
2022-11-17T03:51:50.355Z,15.50
2022-11-17T03:54:16.685Z,9.85
2022-11-17T03:56:46.014Z,11.02
2022-11-17T03:59:18.044Z,11.07
2022-11-17T04:01:44.503Z,8.82
2022-11-17T04:04:14.798Z,6.47
2022-11-17T04:06:41.092Z,10.32
2022-11-17T04:09:07.431Z,8.05
2022-11-17T04:11:52.587Z,10.65
2022-11-17T04:14:37.504Z,8.48
2022-11-17T04:17:03.859Z,6.10
2022-11-17T04:19:30.147Z,8.95
2022-11-17T04:21:56.484Z,10.18
2022-11-17T04:24:22.828Z,8.88
2022-11-17T04:27:07.805Z,7.88
2022-11-17T04:29:34.758Z,9.30
2022-11-17T04:32:01.043Z,7.90
2022-11-17T04:34:27.337Z,9.98
2022-11-17T04:36:53.797Z,8.43
2022-11-17T04:39:20.129Z,8.23
2022-11-17T04:42:01.946Z,9.68
2022-11-17T04:44:28.931Z,11.00
2022-11-17T04:46:55.751Z,12.15
2022-11-17T04:49:22.936Z,10.18
2022-11-17T04:51:49.631Z,6.80
2022-11-17T04:54:17.408Z,10.30
2022-11-17T04:56:43.796Z,11.30
2022-11-17T04:59:10.118Z,11.32
2022-11-17T05:01:37.034Z,8.48
2022-11-17T05:04:04.826Z,9.55
2022-11-17T05:06:35.709Z,9.55
2022-11-17T05:09:04.050Z,10.90
2022-11-17T05:11:49.100Z,9.13
2022-11-17T05:14:16.499Z,12.65
2022-11-17T05:17:08.434Z,8.02
2022-11-17T05:19:45.654Z,9.63
2022-11-17T05:22:31.647Z,7.13
2022-11-17T05:24:58.172Z,6.93
2022-11-17T05:27:24.485Z,4.30
2022-11-17T05:29:50.878Z,7.55
2022-11-17T05:32:17.636Z,8.38
2022-11-17T05:34:43.924Z,3.70
2022-11-17T05:37:10.322Z,7.30
2022-11-17T05:39:36.614Z,6.60
2022-11-17T05:42:02.978Z,12.68
2022-11-17T05:44:29.364Z,7.22
2022-11-17T05:46:55.698Z,9.02
2022-11-17T05:49:21.995Z,7.10
2022-11-17T05:51:52.522Z,8.48
2022-11-17T05:54:19.359Z,6.78
2022-11-17T05:56:49.197Z,9.38
2022-11-17T05:59:28.419Z,9.18
2022-11-17T06:02:06.931Z,9.15
2022-11-17T06:04:33.347Z,9.18
2022-11-17T06:07:00.554Z,7.72
2022-11-17T06:09:34.636Z,9.48
2022-11-17T06:12:05.637Z,8.27
2022-11-17T06:14:32.769Z,8.30
2022-11-17T06:17:02.700Z,6.38
2022-11-17T06:19:31.179Z,5.45
2022-11-17T06:22:11.557Z,9.77
2022-11-17T06:24:38.585Z,9.48
2022-11-17T06:27:05.598Z,9.93
2022-11-17T06:29:32.212Z,7.53
2022-11-17T06:31:58.951Z,9.73
2022-11-17T06:34:26.180Z,7.15
2022-11-17T06:36:53.473Z,10.48
2022-11-17T06:39:19.870Z,10.02
2022-11-17T06:41:46.160Z,8.38
2022-11-17T06:44:12.473Z,7.10
2022-11-17T06:46:38.872Z,9.98
2022-11-17T06:49:05.948Z,6.32
2022-11-17T06:51:32.440Z,7.90
2022-11-17T06:53:58.774Z,8.85
2022-11-17T06:56:25.174Z,7.65
2022-11-17T06:58:51.597Z,6.03
2022-11-17T07:01:18.016Z,8.15
2022-11-17T07:03:44.408Z,9.68
2022-11-17T07:06:11.346Z,5.97
2022-11-17T07:08:38.470Z,7.47
2022-11-17T07:11:06.318Z,7.05
2022-11-17T07:13:33.335Z,10.75
2022-11-17T07:16:07.451Z,5.50
2022-11-17T07:18:34.550Z,7.20
2022-11-17T07:21:05.181Z,6.10
2022-11-17T07:23:32.557Z,5.38
2022-11-17T07:25:59.624Z,5.93
2022-11-17T07:28:26.536Z,5.68
2022-11-17T07:30:53.089Z,6.10
2022-11-17T07:33:19.602Z,8.00
2022-11-17T07:35:46.176Z,5.35
2022-11-17T07:38:12.729Z,6.72
2022-11-17T07:40:39.149Z,6.07
2022-11-17T07:43:05.676Z,6.03
2022-11-17T07:45:35.038Z,6.72
2022-11-17T07:48:02.218Z,6.65
2022-11-17T07:50:28.785Z,6.72
2022-11-17T07:52:55.980Z,5.90
2022-11-17T07:55:23.070Z,8.35
2022-11-17T07:57:56.371Z,6.82
2022-11-17T08:00:22.766Z,4.68
2022-11-17T08:02:49.453Z,6.45
2022-11-17T08:05:17.412Z,6.22
2022-11-17T08:07:44.613Z,6.18
2022-11-17T08:10:11.395Z,5.32
2022-11-17T08:12:37.780Z,5.30
2022-11-17T08:15:04.329Z,8.50
2022-11-17T08:17:32.069Z,7.97
2022-11-17T08:19:58.493Z,5.88
2022-11-17T08:22:24.815Z,10.48
2022-11-17T08:24:51.186Z,8.27
2022-11-17T08:27:17.543Z,5.63
2022-11-17T08:29:43.919Z,8.93
2022-11-17T08:32:10.303Z,6.97
2022-11-17T08:34:36.667Z,7.88
2022-11-17T08:37:03.036Z,4.72
2022-11-17T08:39:29.418Z,7.22
2022-11-17T08:41:55.909Z,6.20
2022-11-17T08:44:22.294Z,4.97
2022-11-17T08:46:48.969Z,6.45
2022-11-17T08:49:15.462Z,9.55
2022-11-17T08:51:41.843Z,10.73
2022-11-17T08:54:10.173Z,11.38
2022-11-17T08:56:36.646Z,9.85
2022-11-17T08:59:03.043Z,6.72
2022-11-17T09:01:29.515Z,8.50
2022-11-17T09:03:55.900Z,7.47
2022-11-17T09:06:22.382Z,7.03
2022-11-17T09:08:49.775Z,6.82
2022-11-17T09:11:16.757Z,11.32
2022-11-17T09:13:43.458Z,9.75
2022-11-17T09:16:10.753Z,6.68
2022-11-17T09:18:38.832Z,7.28
2022-11-17T09:21:15.900Z,5.93
2022-11-17T09:23:42.429Z,6.13
2022-11-17T09:26:10.341Z,9.07
2022-11-17T09:28:37.276Z,7.10
2022-11-17T09:31:08.284Z,5.78
2022-11-17T09:33:34.761Z,10.07
2022-11-17T09:36:01.118Z,6.95
2022-11-17T09:38:27.434Z,9.63
2022-11-17T09:40:55.895Z,8.02
2022-11-17T09:43:26.929Z,6.78
2022-11-17T09:45:56.084Z,7.97
2022-11-17T09:48:45.953Z,6.75
2022-11-17T09:51:14.197Z,6.10
2022-11-17T09:53:44.266Z,5.72
2022-11-17T09:56:12.244Z,7.55
2022-11-17T09:58:41.672Z,10.40
2022-11-17T10:01:15.886Z,7.68
2022-11-17T10:03:46.161Z,8.45
2022-11-17T10:06:19.280Z,7.45
2022-11-17T10:08:45.577Z,9.82
2022-11-17T10:11:32.398Z,8.38
2022-11-17T10:14:02.097Z,5.95
2022-11-17T10:16:28.780Z,10.32
2022-11-17T10:18:55.252Z,8.88
2022-11-17T10:21:21.652Z,8.25
2022-11-17T10:23:54.818Z,7.72
2022-11-17T10:26:21.141Z,9.40
2022-11-17T10:28:48.454Z,11.85
2022-11-17T10:31:16.734Z,10.82
2022-11-17T10:33:44.896Z,14.80
2022-11-17T10:36:25.298Z,8.98
2022-11-17T10:38:53.296Z,9.20
2022-11-17T10:41:23.672Z,12.48
2022-11-17T10:44:04.804Z,11.55
2022-11-17T10:46:40.628Z,11.10
2022-11-17T10:49:22.901Z,8.95
2022-11-17T10:52:03.717Z,12.60
2022-11-17T10:54:30.121Z,13.13
2022-11-17T10:56:58.279Z,12.93
2022-11-17T10:59:29.941Z,7.57
2022-11-17T11:01:56.585Z,6.15
2022-11-17T11:04:33.277Z,11.15
2022-11-17T11:07:10.316Z,10.48
2022-11-17T11:09:42.999Z,8.07
2022-11-17T11:12:15.866Z,10.25
2022-11-17T11:14:44.597Z,9.98
2022-11-17T11:17:11.950Z,6.22
2022-11-17T11:19:39.132Z,11.13
2022-11-17T11:22:24.291Z,11.98
2022-11-17T11:24:54.886Z,11.93
2022-11-17T11:27:40.026Z,9.13
2022-11-17T11:30:10.833Z,10.23
2022-11-17T11:32:46.306Z,9.57
2022-11-17T11:35:18.686Z,10.60
2022-11-17T11:38:08.378Z,10.68
2022-11-17T11:40:42.381Z,9.68
2022-11-17T11:45:44.186Z,11.23
2022-11-17T11:48:15.301Z,10.00
2022-11-17T11:50:52.445Z,10.20
2022-11-17T11:53:23.993Z,6.32
2022-11-17T11:55:54.819Z,7.50
2022-11-17T11:58:24.627Z,9.57
2022-11-17T12:00:53.002Z,10.27
2022-11-17T12:03:23.767Z,10.73
2022-11-17T12:06:21.439Z,8.90
2022-11-17T12:08:55.445Z,9.40
2022-11-17T12:14:07.228Z,8.27
2022-11-17T12:16:35.578Z,9.80
2022-11-17T12:19:02.298Z,11.60
2022-11-17T12:21:29.548Z,8.80
2022-11-17T12:24:01.311Z,7.65
2022-11-17T12:26:29.365Z,9.25
2022-11-17T12:29:14.450Z,9.02
2022-11-17T12:31:42.022Z,6.63
2022-11-17T12:34:10.935Z,11.60
2022-11-17T12:36:38.234Z,6.63
2022-11-17T12:39:07.015Z,4.07
2022-11-17T12:41:48.735Z,5.82
2022-11-17T12:44:44.511Z,8.25
2022-11-17T12:47:16.974Z,8.63
2022-11-17T12:49:49.515Z,6.18
2022-11-17T12:52:31.659Z,6.88
2022-11-17T12:55:16.860Z,9.20
2022-11-17T12:57:45.732Z,8.07
2022-11-17T13:00:12.241Z,9.20
2022-11-17T13:02:47.750Z,7.00
2022-11-17T13:05:17.834Z,5.75
2022-11-17T13:07:44.455Z,3.10
2022-11-17T13:10:30.130Z,7.90
2022-11-17T13:13:11.950Z,5.00
2022-11-17T13:15:38.423Z,7.60
2022-11-17T13:18:09.723Z,4.28
2022-11-17T13:20:38.537Z,5.25
2022-11-17T13:23:06.913Z,4.05
2022-11-17T13:25:34.126Z,5.40
2022-11-17T13:28:04.805Z,5.63
2022-11-17T13:30:32.695Z,2.42
2022-11-17T13:33:00.547Z,6.65
2022-11-17T13:35:45.149Z,4.45
2022-11-17T13:38:11.438Z,5.90
2022-11-17T13:40:38.799Z,5.20
2022-11-17T13:43:05.532Z,6.00
2022-11-17T13:45:31.918Z,3.67
2022-11-17T13:47:59.428Z,3.97
2022-11-17T13:50:31.825Z,6.05
2022-11-17T13:52:59.550Z,4.20
2022-11-17T13:55:26.190Z,5.75
2022-11-17T13:57:54.214Z,5.25
2022-11-17T14:00:20.793Z,6.80
2022-11-17T14:02:54.664Z,6.88
2022-11-17T14:05:23.184Z,6.68
2022-11-17T14:07:50.794Z,6.38
2022-11-17T14:10:20.179Z,8.25
2022-11-17T14:12:46.981Z,4.28
2022-11-17T14:15:24.309Z,4.60
2022-11-17T14:18:00.982Z,7.50
2022-11-17T14:20:34.456Z,6.13
2022-11-17T14:23:08.530Z,5.60
2022-11-17T14:25:36.147Z,6.75
2022-11-17T14:28:02.485Z,7.00
2022-11-17T14:30:28.843Z,7.10
2022-11-17T14:32:58.277Z,5.35
2022-11-17T14:35:30.084Z,5.75
2022-11-17T14:37:56.515Z,3.95
2022-11-17T14:40:22.879Z,5.43
2022-11-17T14:42:49.239Z,10.32
2022-11-17T14:45:16.621Z,4.97
2022-11-17T14:47:43.246Z,7.10
2022-11-17T14:50:13.035Z,8.15
2022-11-17T14:52:41.066Z,7.35
2022-11-17T14:55:07.995Z,6.22
2022-11-17T14:57:34.281Z,5.22
2022-11-17T15:00:00.714Z,6.60
2022-11-17T15:02:27.076Z,4.82
2022-11-17T15:04:53.939Z,5.05
2022-11-17T15:07:20.698Z,9.15
2022-11-17T15:09:47.034Z,9.55
2022-11-17T15:12:13.423Z,8.27
2022-11-17T15:14:39.799Z,5.45
2022-11-17T15:17:11.164Z,7.80
2022-11-17T15:19:40.701Z,7.85
2022-11-17T15:22:07.017Z,8.30
2022-11-17T15:24:33.417Z,7.05
2022-11-17T15:26:59.685Z,6.80
2022-11-17T15:29:26.280Z,7.93
2022-11-17T15:31:52.643Z,8.70
2022-11-17T15:34:20.622Z,7.45
2022-11-17T15:36:47.470Z,9.63
2022-11-17T15:39:14.348Z,10.07
2022-11-17T15:41:41.258Z,10.82
2022-11-17T15:44:07.617Z,9.93
2022-11-17T15:46:33.944Z,6.40
2022-11-17T15:49:00.259Z,9.93
2022-11-17T15:51:27.260Z,7.78
2022-11-17T15:53:56.264Z,7.13
2022-11-17T15:56:27.018Z,5.18
2022-11-17T15:58:54.889Z,8.30
2022-11-17T16:01:27.247Z,8.05
2022-11-17T16:03:58.356Z,9.10
2022-11-17T16:06:24.887Z,5.72
2022-11-17T16:08:51.245Z,5.68
2022-11-17T16:11:17.595Z,12.07
2022-11-17T16:13:43.920Z,9.32
2022-11-17T16:16:14.076Z,7.55
2022-11-17T16:18:40.445Z,9.18
2022-11-17T16:21:11.035Z,12.60
2022-11-17T16:23:56.262Z,8.48
2022-11-17T16:26:23.798Z,8.77
2022-11-17T16:28:55.063Z,9.18
2022-11-17T16:31:23.632Z,8.48
2022-11-17T16:33:51.701Z,5.50
2022-11-17T16:36:18.788Z,6.72
2022-11-17T16:38:59.747Z,4.05
2022-11-17T16:41:37.128Z,7.93
2022-11-17T16:44:07.010Z,4.05
2022-11-17T16:46:33.513Z,6.10
2022-11-17T16:49:04.293Z,5.35
2022-11-17T16:51:30.868Z,7.03
2022-11-17T16:53:58.909Z,5.70
2022-11-17T16:56:25.318Z,5.15
2022-11-17T16:58:52.218Z,4.07
2022-11-17T17:01:19.828Z,6.93
2022-11-17T17:03:46.269Z,5.57
2022-11-17T17:06:13.916Z,5.30
2022-11-17T17:08:40.457Z,5.07
2022-11-17T17:11:10.382Z,6.93
2022-11-17T17:13:37.048Z,11.50
2022-11-17T17:16:10.999Z,18.67
2022-11-17T17:21:04.031Z,10.40
2022-11-17T17:23:30.382Z,12.07
2022-11-17T17:26:07.010Z,11.35
2022-11-17T17:28:34.409Z,12.13
2022-11-17T17:31:00.881Z,11.82
2022-11-17T17:33:30.459Z,14.15
2022-11-17T17:36:00.969Z,11.75
2022-11-17T17:38:27.705Z,13.93
2022-11-17T17:40:54.016Z,12.73
2022-11-17T17:43:20.356Z,13.45
2022-11-17T17:45:46.872Z,12.05
2022-11-17T17:48:13.523Z,13.82
2022-11-17T17:50:40.143Z,17.83
2022-11-17T17:53:06.651Z,12.40
2022-11-17T17:55:34.463Z,11.00
2022-11-17T17:58:00.765Z,26.90
2022-11-17T18:00:27.113Z,18.15
2022-11-17T18:02:54.323Z,16.55
2022-11-17T18:05:22.512Z,18.83
2022-11-17T18:07:49.510Z,17.75
2022-11-17T18:10:16.133Z,15.48
2022-11-17T18:12:42.471Z,10.50
2022-11-17T18:15:09.652Z,11.75
2022-11-17T18:17:35.950Z,11.65
2022-11-17T18:20:02.265Z,14.38
2022-11-17T18:22:28.594Z,17.80
2022-11-17T18:24:58.252Z,18.73
2022-11-17T18:27:24.878Z,13.88
2022-11-17T18:29:51.204Z,12.23
2022-11-17T18:32:17.580Z,21.13
2022-11-17T18:34:43.887Z,19.42
2022-11-17T18:37:10.274Z,21.00
2022-11-17T18:39:38.160Z,18.35
2022-11-17T18:42:04.632Z,18.15
2022-11-17T18:44:31.117Z,13.05
2022-11-17T18:47:02.581Z,14.45
2022-11-17T18:49:29.933Z,18.77
2022-11-17T18:51:56.302Z,23.30
2022-11-17T18:54:22.621Z,17.55
2022-11-17T18:56:50.034Z,13.27
2022-11-17T18:59:18.418Z,15.52
2022-11-17T19:01:45.031Z,15.32
2022-11-17T19:04:12.235Z,17.10
2022-11-17T19:06:38.559Z,16.05
2022-11-17T19:09:05.987Z,19.48
2022-11-17T19:11:33.541Z,21.25
2022-11-17T19:14:02.223Z,21.67
2022-11-17T19:16:28.935Z,20.98
2022-11-17T19:18:55.937Z,14.55
2022-11-17T19:21:24.441Z,19.38
2022-11-17T19:23:52.127Z,21.85
2022-11-17T19:26:20.402Z,17.85
2022-11-17T19:28:47.718Z,14.43
2022-11-17T19:31:16.939Z,14.63
2022-11-17T19:33:43.850Z,14.18
2022-11-17T19:36:11.733Z,15.25
2022-11-17T19:38:38.622Z,13.77
2022-11-17T19:41:04.981Z,14.48
2022-11-17T19:43:33.053Z,17.20
2022-11-17T19:46:00.089Z,17.08
2022-11-17T19:48:26.947Z,16.08
2022-11-17T19:50:55.958Z,18.23
2022-11-17T19:53:22.892Z,22.70
2022-11-17T19:55:49.332Z,18.98
2022-11-17T19:58:17.146Z,23.98
2022-11-17T20:00:45.202Z,19.73
2022-11-17T20:03:12.313Z,19.45
2022-11-17T20:05:38.771Z,17.20
2022-11-17T20:08:05.373Z,22.13
2022-11-17T20:10:32.519Z,19.27
2022-11-17T20:12:59.017Z,19.80
2022-11-17T20:15:34.466Z,14.45
2022-11-17T20:18:01.426Z,20.13
2022-11-17T20:20:27.790Z,16.90
2022-11-17T20:22:54.116Z,14.73
2022-11-17T20:25:20.456Z,14.15
2022-11-17T20:27:46.800Z,16.17
2022-11-17T20:30:15.399Z,14.45
2022-11-17T20:32:41.935Z,13.75
2022-11-17T20:35:08.465Z,13.05
2022-11-17T20:37:34.816Z,8.85
2022-11-17T20:40:01.182Z,9.13
2022-11-17T20:42:27.519Z,12.38
2022-11-17T20:44:53.858Z,9.95
2022-11-17T20:47:20.180Z,9.05
2022-11-17T20:49:47.553Z,7.00
2022-11-17T20:52:13.958Z,12.32
2022-11-17T20:54:40.494Z,14.82
2022-11-17T20:57:06.857Z,13.52
2022-11-17T20:59:33.229Z,10.35
2022-11-17T21:01:59.565Z,11.95
2022-11-17T21:04:25.918Z,16.05
2022-11-17T21:06:52.311Z,13.25
2022-11-17T21:09:19.150Z,13.77
2022-11-17T21:11:57.793Z,21.20
2022-11-17T21:14:27.678Z,17.10
2022-11-17T21:16:55.446Z,15.95
2022-11-17T21:19:22.030Z,15.70
2022-11-17T21:21:49.561Z,24.98
2022-11-17T21:24:15.966Z,14.57
2022-11-17T21:26:42.346Z,16.65
2022-11-17T21:29:08.741Z,17.55
2022-11-17T21:31:35.598Z,13.80
2022-11-17T21:34:03.026Z,18.65
2022-11-17T21:36:30.278Z,16.02
2022-11-17T21:38:57.090Z,17.02
2022-11-17T21:41:24.542Z,15.45
2022-11-17T21:43:52.010Z,15.27
2022-11-17T21:46:22.394Z,13.40
2022-11-17T21:48:49.144Z,16.70
2022-11-17T21:51:22.642Z,16.05
2022-11-17T21:53:58.673Z,13.68
2022-11-17T21:56:26.406Z,12.40
2022-11-17T21:58:56.377Z,13.30
2022-11-17T22:01:23.197Z,11.63
2022-11-17T22:03:49.573Z,10.73
2022-11-17T22:06:20.049Z,12.60
2022-11-17T22:08:47.213Z,14.25
2022-11-17T22:11:15.558Z,12.07
2022-11-17T22:13:42.346Z,11.65
2022-11-17T22:16:13.254Z,13.85
2022-11-17T22:18:39.915Z,13.55
2022-11-17T22:21:07.051Z,15.57
2022-11-17T22:23:33.839Z,21.08
2022-11-17T22:26:01.871Z,14.48
2022-11-17T22:28:28.582Z,21.75
2022-11-17T22:30:55.342Z,16.38
2022-11-17T22:33:22.387Z,12.60
2022-11-17T22:35:48.763Z,14.00
2022-11-17T22:38:15.623Z,10.35
2022-11-17T22:40:42.253Z,13.98
2022-11-17T22:43:14.436Z,13.32
2022-11-17T22:45:41.469Z,8.98
2022-11-17T22:48:08.020Z,13.05
2022-11-17T22:50:37.457Z,9.20
2022-11-17T22:53:03.881Z,9.98
2022-11-17T22:55:32.630Z,11.75
2022-11-17T22:57:59.003Z,12.90
2022-11-17T23:00:25.828Z,12.00
2022-11-17T23:02:52.214Z,17.75
2022-11-17T23:05:18.577Z,15.90
2022-11-17T23:07:44.931Z,22.25
2022-11-17T23:10:11.992Z,18.08
2022-11-17T23:12:38.469Z,16.40
2022-11-17T23:15:05.420Z,16.45
2022-11-17T23:17:31.794Z,16.88
2022-11-17T23:19:58.258Z,19.88
2022-11-17T23:22:24.604Z,18.60
2022-11-17T23:24:50.998Z,19.90
2022-11-17T23:27:17.304Z,17.67
2022-11-17T23:29:43.628Z,23.33
2022-11-17T23:32:09.973Z,29.42
2022-11-17T23:34:36.264Z,33.30
2022-11-17T23:37:04.087Z,32.55
2022-11-17T23:39:30.610Z,31.85
2022-11-17T23:41:56.952Z,36.72
2022-11-17T23:44:23.258Z,29.65
2022-11-17T23:46:49.593Z,19.77
2022-11-17T23:49:16.285Z,20.38
2022-11-17T23:51:42.918Z,16.25
2022-11-17T23:54:12.944Z,19.13
2022-11-17T23:56:39.484Z,19.10
2022-11-17T23:59:05.901Z,38.42
